createdAt,value
2019-04-11T00:02:22.695Z,5.68
2019-04-11T00:06:29.807Z,5.67
2019-04-11T00:10:37.506Z,5.66
2019-04-11T00:14:45.536Z,5.62
2019-04-11T00:18:54.725Z,5.57
2019-04-11T00:23:02.912Z,5.54
2019-04-11T00:27:10.763Z,5.44
2019-04-11T00:31:18.804Z,5.36
2019-04-11T00:35:25.953Z,5.30
2019-04-11T00:39:33.754Z,5.26
2019-04-11T00:43:43.774Z,5.30
2019-04-11T00:47:51.225Z,5.23
2019-04-11T00:51:58.364Z,5.08
2019-04-11T00:56:06.187Z,5.06
2019-04-11T01:00:13.405Z,5.02
2019-04-11T01:04:20.597Z,5.05
2019-04-11T01:08:29.459Z,4.97
2019-04-11T01:12:36.558Z,4.95
2019-04-11T01:16:54.460Z,4.82
2019-04-11T01:21:02.355Z,4.82
2019-04-11T01:25:10.496Z,4.83
2019-04-11T01:29:17.620Z,4.76
2019-04-11T01:33:24.418Z,4.76
2019-04-11T01:37:31.456Z,4.70
2019-04-11T01:41:38.432Z,4.73
2019-04-11T01:45:45.641Z,4.66
2019-04-11T01:49:53.071Z,4.63
2019-04-11T01:53:59.857Z,4.64
2019-04-11T01:58:06.724Z,4.56
2019-04-11T02:02:28.696Z,4.49
2019-04-11T02:06:36.205Z,4.40
2019-04-11T02:10:43.269Z,4.42
2019-04-11T02:14:50.181Z,4.32
2019-04-11T02:18:56.949Z,4.37
2019-04-11T02:23:13.391Z,4.33
2019-04-11T02:27:24.432Z,4.30
2019-04-11T02:31:32.653Z,4.21
2019-04-11T02:35:40.432Z,4.20
2019-04-11T02:39:49.341Z,4.13
2019-04-11T02:43:57.617Z,4.17
2019-04-11T02:48:09.191Z,4.07
2019-04-11T02:52:15.256Z,4.02
2019-04-11T02:56:23.792Z,4.01
2019-04-11T03:00:33.669Z,3.99
2019-04-11T03:04:41.666Z,3.96
2019-04-11T03:08:50.822Z,3.97
2019-04-11T03:12:59.019Z,3.86
2019-04-11T03:17:16.398Z,3.80
2019-04-11T03:21:20.487Z,3.75
2019-04-11T03:25:24.689Z,3.73
2019-04-11T03:29:34.875Z,3.70
2019-04-11T03:34:31.426Z,3.69
2019-04-11T03:38:12.447Z,3.57
2019-04-11T03:42:15.809Z,3.54
2019-04-11T03:46:25.022Z,3.54
2019-04-11T03:50:20.706Z,3.49
2019-04-11T03:54:25.295Z,3.50
2019-04-11T03:58:33.184Z,3.43
2019-04-11T04:02:41.350Z,3.42
2019-04-11T04:06:49.898Z,3.39
2019-04-11T04:11:23.176Z,3.34
2019-04-11T04:15:51.917Z,3.36
2019-04-11T04:20:05.719Z,3.27
2019-04-11T04:24:39.039Z,3.15
2019-04-11T04:28:43.173Z,3.14
2019-04-11T04:32:49.957Z,3.05
2019-04-11T04:36:57.941Z,3.02
2019-04-11T04:41:20.049Z,3.05
2019-04-11T04:45:19.214Z,3.00
2019-04-11T04:49:27.959Z,2.97
2019-04-11T04:53:35.574Z,2.98
2019-04-11T04:57:42.983Z,2.87
2019-04-11T05:01:50.852Z,2.87
2019-04-11T05:05:58.329Z,2.91
2019-04-11T05:10:08.796Z,2.94
2019-04-11T05:14:16.390Z,3.06
2019-04-11T05:18:23.701Z,3.01
2019-04-11T05:22:31.639Z,3.00
2019-04-11T05:26:39.631Z,3.29
2019-04-11T05:30:46.482Z,3.23
2019-04-11T05:34:53.147Z,3.12
2019-04-11T05:39:00.405Z,3.18
2019-04-11T05:43:09.096Z,3.16
2019-04-11T05:47:18.517Z,3.17
2019-04-11T05:51:25.245Z,3.26
2019-04-11T05:55:36.345Z,3.26
2019-04-11T05:59:45.925Z,3.35
2019-04-11T06:03:55.475Z,3.40
2019-04-11T06:08:05.398Z,3.49
2019-04-11T06:12:31.825Z,3.54
2019-04-11T06:16:46.229Z,3.76
2019-04-11T06:20:51.489Z,3.75
2019-04-11T06:25:19.307Z,3.94
2019-04-11T06:29:31.256Z,4.13
2019-04-11T06:33:42.850Z,4.20
2019-04-11T06:38:08.145Z,4.44
2019-04-11T06:42:46.173Z,4.41
2019-04-11T06:47:10.704Z,4.60
2019-04-11T06:51:30.986Z,4.90
2019-04-11T06:55:57.338Z,5.03
2019-04-11T07:00:05.238Z,5.28
2019-04-11T07:04:22.229Z,5.36
2019-04-11T07:08:34.201Z,5.47
2019-04-11T07:13:02.001Z,5.63
2019-04-11T07:17:27.502Z,5.95
2019-04-11T07:21:36.461Z,6.18
2019-04-11T07:26:04.479Z,6.12
2019-04-11T07:30:29.371Z,6.40
2019-04-11T07:34:54.382Z,6.69
2019-04-11T07:39:09.833Z,6.72
2019-04-11T07:43:19.430Z,6.81
2019-04-11T07:47:37.585Z,6.93
2019-04-11T07:51:48.609Z,7.05
2019-04-11T07:55:57.462Z,7.10
2019-04-11T08:00:38.608Z,7.60
2019-04-11T08:05:07.365Z,7.80
2019-04-11T08:09:33.490Z,7.62
2019-04-11T08:13:57.880Z,8.03
2019-04-11T08:18:12.475Z,7.98
2019-04-11T08:22:30.692Z,8.48
2019-04-11T08:27:05.862Z,8.51
2019-04-11T08:31:34.614Z,8.89
2019-04-11T08:36:09.509Z,9.05
2019-04-11T08:40:17.615Z,9.43
2019-04-11T08:44:29.970Z,10.06
2019-04-11T08:48:39.363Z,10.02
2019-04-11T08:53:04.566Z,10.47
2019-04-11T08:57:13.762Z,10.95
2019-04-11T09:01:22.134Z,11.12
2019-04-11T09:05:55.310Z,11.58
2019-04-11T09:10:31.805Z,11.09
2019-04-11T09:14:56.774Z,12.42
2019-04-11T09:19:10.450Z,12.17
2019-04-11T09:23:21.746Z,12.08
2019-04-11T09:27:49.013Z,12.47
2019-04-11T09:32:15.989Z,12.28
2019-04-11T09:36:40.980Z,12.82
2019-04-11T09:40:54.507Z,12.98
2019-04-11T09:45:19.623Z,13.48
2019-04-11T09:49:36.076Z,13.84
2019-04-11T09:53:45.020Z,13.88
2019-04-11T09:57:58.197Z,12.69
2019-04-11T10:02:21.701Z,13.30
2019-04-11T10:07:03.409Z,12.73
2019-04-11T10:11:30.372Z,12.69
2019-04-11T10:15:54.248Z,12.79
2019-04-11T10:20:04.727Z,11.46
2019-04-11T10:24:36.767Z,12.32
2019-04-11T10:29:12.199Z,12.55
2019-04-11T10:33:35.724Z,11.60
2019-04-11T10:37:44.308Z,11.65
2019-04-11T10:41:54.527Z,11.54
2019-04-11T10:46:13.331Z,12.06
2019-04-11T10:50:40.246Z,12.37
2019-04-11T10:55:03.730Z,12.51
2019-04-11T10:59:10.902Z,13.45
2019-04-11T11:03:27.297Z,12.53
2019-04-11T11:07:34.981Z,13.52
2019-04-11T11:11:51.036Z,13.40
2019-04-11T11:16:00.134Z,13.69
2019-04-11T11:20:38.891Z,12.55
2019-04-11T11:25:00.137Z,13.84
2019-04-11T11:29:20.574Z,14.35
2019-04-11T11:33:30.082Z,13.28
2019-04-11T11:37:53.435Z,14.17
2019-04-11T11:42:22.186Z,15.15
2019-04-11T11:46:47.997Z,14.35
2019-04-11T11:50:54.980Z,14.84
2019-04-11T11:55:02.201Z,15.57
2019-04-11T11:59:15.265Z,15.66
2019-04-11T12:03:42.630Z,15.56
2019-04-11T12:08:08.749Z,15.49
2019-04-11T12:12:19.790Z,14.70
2019-04-11T12:16:37.674Z,15.82
2019-04-11T12:20:59.051Z,15.46
2019-04-11T12:25:20.828Z,16.12
2019-04-11T12:30:04.444Z,16.18
2019-04-11T12:34:30.314Z,16.38
2019-04-11T12:39:00.782Z,16.49
2019-04-11T12:43:10.848Z,16.80
2019-04-11T12:47:23.218Z,16.39
2019-04-11T12:51:49.349Z,16.96
2019-04-11T12:56:15.142Z,16.29
2019-04-11T13:00:59.604Z,16.74
2019-04-11T13:05:07.502Z,16.33
2019-04-11T13:09:33.435Z,16.00
2019-04-11T13:13:50.404Z,15.77
2019-04-11T13:18:32.057Z,15.86
2019-04-11T13:22:42.488Z,17.02
2019-04-11T13:27:28.401Z,16.12
2019-04-11T13:31:54.280Z,16.69
2019-04-11T13:36:17.866Z,16.39
2019-04-11T13:40:49.782Z,16.02
2019-04-11T13:44:56.523Z,16.55
2019-04-11T13:49:25.042Z,16.22
2019-04-11T13:53:53.692Z,16.19
2019-04-11T13:58:28.580Z,16.06
2019-04-11T14:02:51.186Z,15.90
2019-04-11T14:06:55.955Z,16.13
2019-04-11T14:11:08.557Z,15.95
2019-04-11T14:15:18.855Z,15.47
2019-04-11T14:19:44.644Z,15.35
2019-04-11T14:24:11.697Z,15.88
2019-04-11T14:28:19.540Z,15.78
2019-04-11T14:32:31.125Z,15.16
2019-04-11T14:36:52.729Z,15.37
2019-04-11T14:41:09.891Z,15.16
2019-04-11T14:45:36.592Z,14.86
2019-04-11T14:49:45.945Z,14.61
2019-04-11T14:54:08.159Z,14.45
2019-04-11T14:58:44.808Z,14.27
2019-04-11T15:03:08.433Z,14.63
2019-04-11T15:07:15.655Z,13.72
2019-04-11T15:11:36.954Z,14.05
2019-04-11T15:16:10.983Z,13.66
2019-04-11T15:20:34.088Z,13.66
2019-04-11T15:24:50.798Z,13.29
2019-04-11T15:29:05.271Z,12.99
2019-04-11T15:33:54.483Z,13.00
2019-04-11T15:38:32.565Z,12.53
2019-04-11T15:43:13.369Z,12.34
2019-04-11T15:47:20.904Z,12.40
2019-04-11T15:51:31.687Z,12.11
2019-04-11T15:55:57.370Z,12.19
2019-04-11T16:00:31.247Z,12.01
2019-04-11T16:04:59.336Z,12.27
2019-04-11T16:09:13.943Z,11.73
2019-04-11T16:13:32.653Z,12.25
2019-04-11T16:17:57.996Z,12.05
2019-04-11T16:22:16.310Z,11.63
2019-04-11T16:26:29.448Z,11.36
2019-04-11T16:30:45.055Z,11.24
2019-04-11T16:35:07.689Z,11.15
2019-04-11T16:39:50.363Z,11.24
2019-04-11T16:43:58.491Z,11.04
2019-04-11T16:48:14.803Z,10.64
2019-04-11T16:52:23.043Z,10.52
2019-04-11T16:56:30.162Z,10.67
2019-04-11T17:00:37.200Z,10.51
2019-04-11T17:04:43.966Z,10.43
2019-04-11T17:08:56.904Z,10.27
2019-04-11T17:13:04.125Z,10.18
2019-04-11T17:17:15.157Z,10.06
2019-04-11T17:21:19.359Z,10.08
2019-04-11T17:25:26.187Z,10.01
2019-04-11T17:29:33.191Z,9.78
2019-04-11T17:33:39.964Z,9.84
2019-04-11T17:37:46.760Z,9.73
2019-04-11T17:41:53.443Z,9.90
2019-04-11T17:46:00.356Z,9.96
2019-04-11T17:50:08.029Z,9.96
2019-04-11T17:54:14.894Z,9.54
2019-04-11T17:58:21.623Z,9.35
2019-04-11T18:02:28.508Z,9.22
2019-04-11T18:06:35.363Z,9.11
2019-04-11T18:10:42.249Z,8.95
2019-04-11T18:14:48.957Z,8.84
2019-04-11T18:18:56.691Z,8.86
2019-04-11T18:23:06.550Z,8.76
2019-04-11T18:27:13.294Z,8.70
2019-04-11T18:31:19.949Z,8.50
2019-04-11T18:35:26.651Z,8.40
2019-04-11T18:39:33.680Z,8.25
2019-04-11T18:43:41.802Z,8.15
2019-04-11T18:47:49.103Z,8.05
2019-04-11T18:51:56.052Z,8.01
2019-04-11T18:56:02.785Z,7.83
2019-04-11T19:00:14.876Z,7.73
2019-04-11T19:04:31.863Z,7.79
2019-04-11T19:08:30.156Z,7.65
2019-04-11T19:12:36.961Z,7.55
2019-04-11T19:16:46.104Z,7.36
2019-04-11T19:20:52.820Z,7.35
2019-04-11T19:24:59.885Z,7.19
2019-04-11T19:29:06.787Z,7.08
2019-04-11T19:33:13.869Z,6.95
2019-04-11T19:37:20.681Z,6.89
2019-04-11T19:41:33.266Z,6.76
2019-04-11T19:45:40.180Z,6.79
2019-04-11T19:49:46.861Z,6.63
2019-04-11T19:53:53.576Z,6.55
2019-04-11T19:58:00.480Z,6.47
2019-04-11T20:02:07.265Z,6.36
2019-04-11T20:06:14.269Z,6.36
2019-04-11T20:10:21.078Z,6.28
2019-04-11T20:14:27.764Z,6.20
2019-04-11T20:18:34.431Z,6.17
2019-04-11T20:22:42.341Z,6.05
2019-04-11T20:26:50.309Z,5.97
2019-04-11T20:30:57.576Z,5.91
2019-04-11T20:35:09.328Z,5.83
2019-04-11T20:39:16.041Z,5.80
2019-04-11T20:43:25.468Z,5.73
2019-04-11T20:47:31.480Z,5.83
2019-04-11T20:51:38.419Z,6.02
2019-04-11T20:55:45.200Z,5.73
2019-04-11T20:59:51.934Z,5.58
2019-04-11T21:04:00.668Z,5.52
2019-04-11T21:08:08.180Z,5.45
2019-04-11T21:12:16.576Z,5.53
2019-04-11T21:16:23.400Z,5.39
2019-04-11T21:20:31.512Z,5.43
2019-04-11T21:24:38.276Z,5.25
2019-04-11T21:28:44.980Z,5.27
2019-04-11T21:32:54.804Z,5.16
2019-04-11T21:37:02.624Z,5.20
2019-04-11T21:41:09.661Z,5.08
2019-04-11T21:45:16.365Z,5.06
2019-04-11T21:49:23.050Z,5.05
2019-04-11T21:53:36.455Z,4.98
2019-04-11T21:57:38.328Z,4.89
2019-04-11T22:01:46.498Z,4.81
2019-04-11T22:05:53.238Z,4.73
2019-04-11T22:09:59.954Z,4.75
2019-04-11T22:14:11.012Z,4.60
2019-04-11T22:18:16.816Z,4.62
2019-04-11T22:22:23.767Z,4.59
2019-04-11T22:26:30.747Z,4.56
2019-04-11T22:30:37.459Z,4.51
2019-04-11T22:34:47.917Z,4.40
2019-04-11T22:38:54.744Z,4.43
2019-04-11T22:43:08.123Z,4.43
2019-04-11T22:47:14.175Z,4.36
2019-04-11T22:51:20.876Z,4.31
2019-04-11T22:55:27.547Z,4.31
2019-04-11T22:59:34.611Z,4.33
2019-04-11T23:03:47.710Z,4.30
2019-04-11T23:07:54.474Z,4.22
2019-04-11T23:12:01.163Z,4.22
2019-04-11T23:16:07.850Z,4.16
2019-04-11T23:20:15.041Z,4.19
2019-04-11T23:24:21.814Z,4.14
2019-04-11T23:28:28.536Z,4.08
2019-04-11T23:32:35.217Z,4.06
2019-04-11T23:36:42.186Z,3.95
2019-04-11T23:40:51.205Z,3.91
2019-04-11T23:44:57.261Z,3.84
2019-04-11T23:49:03.963Z,3.82
2019-04-11T23:53:10.644Z,3.80
2019-04-11T23:57:17.271Z,3.75
